sensor_id;sensor_type;location;lat;lon;timestamp;pressure;altitude;pressure_sealevel;temperature
76007;BMP280;64699;0.000;0.000;2024-02-26T00:00:30;99701.22;;;19.71
76007;BMP280;64699;0.000;0.000;2024-02-26T00:02:55;99702.72;;;19.72
76007;BMP280;64699;0.000;0.000;2024-02-26T00:05:20;99702.72;;;19.72
76007;BMP280;64699;0.000;0.000;2024-02-26T00:07:46;99702.53;;;19.70
76007;BMP280;64699;0.000;0.000;2024-02-26T00:10:12;99710.81;;;19.70
76007;BMP280;64699;0.000;0.000;2024-02-26T00:12:38;99708.03;;;19.70
76007;BMP280;64699;0.000;0.000;2024-02-26T00:15:04;99694.28;;;19.70
76007;BMP280;64699;0.000;0.000;2024-02-26T00:17:29;99692.22;;;19.70
76007;BMP280;64699;0.000;0.000;2024-02-26T00:19:55;99698.31;;;19.69
76007;BMP280;64699;0.000;0.000;2024-02-26T00:22:21;99693.53;;;19.69
76007;BMP280;64699;0.000;0.000;2024-02-26T00:24:47;99697.59;;;19.68
76007;BMP280;64699;0.000;0.000;2024-02-26T00:27:12;99699.06;;;19.69
76007;BMP280;64699;0.000;0.000;2024-02-26T00:29:37;99696.47;;;19.71
76007;BMP280;64699;0.000;0.000;2024-02-26T00:32:02;99685.44;;;19.71
76007;BMP280;64699;0.000;0.000;2024-02-26T00:34:28;99686.19;;;19.72
76007;BMP280;64699;0.000;0.000;2024-02-26T00:36:53;99681.94;;;19.71
76007;BMP280;64699;0.000;0.000;2024-02-26T00:39:18;99674.25;;;19.69
76007;BMP280;64699;0.000;0.000;2024-02-26T00:41:43;99672.22;;;19.70
76007;BMP280;64699;0.000;0.000;2024-02-26T00:44:08;99677.75;;;19.70
76007;BMP280;64699;0.000;0.000;2024-02-26T00:46:34;99679.78;;;19.69
76007;BMP280;64699;0.000;0.000;2024-02-26T00:48:59;99675.53;;;19.68
76007;BMP280;64699;0.000;0.000;2024-02-26T00:51:25;99674.78;;;19.68
76007;BMP280;64699;0.000;0.000;2024-02-26T00:53:50;99677.41;;;19.66
76007;BMP280;64699;0.000;0.000;2024-02-26T00:56:15;99675.94;;;19.65
76007;BMP280;64699;0.000;0.000;2024-02-26T00:58:41;99678.69;;;19.65
76007;BMP280;64699;0.000;0.000;2024-02-26T01:01:06;99674.47;;;19.64
76007;BMP280;64699;0.000;0.000;2024-02-26T01:03:31;99677.75;;;19.62
76007;BMP280;64699;0.000;0.000;2024-02-26T01:05:56;99667.44;;;19.63
76007;BMP280;64699;0.000;0.000;2024-02-26T01:08:21;99670.78;;;19.61
76007;BMP280;64699;0.000;0.000;2024-02-26T01:10:47;99672.81;;;19.61
76007;BMP280;64699;0.000;0.000;2024-02-26T01:13:12;99665.28;;;19.61
76007;BMP280;64699;0.000;0.000;2024-02-26T01:15:37;99669.31;;;19.60
76007;BMP280;64699;0.000;0.000;2024-02-26T01:18:02;99670.06;;;19.61
76007;BMP280;64699;0.000;0.000;2024-02-26T01:20:27;99665.81;;;19.60
76007;BMP280;64699;0.000;0.000;2024-02-26T01:22:53;99668.56;;;19.60
76007;BMP280;64699;0.000;0.000;2024-02-26T01:25:18;99674.09;;;19.60
76007;BMP280;64699;0.000;0.000;2024-02-26T01:27:43;99677.38;;;19.58
76007;BMP280;64699;0.000;0.000;2024-02-26T01:30:09;99673.19;;;19.57
76007;BMP280;64699;0.000;0.000;2024-02-26T01:32:34;99673.19;;;19.57
76007;BMP280;64699;0.000;0.000;2024-02-26T01:35:01;99671.16;;;19.58
76007;BMP280;64699;0.000;0.000;2024-02-26T01:37:27;99666.34;;;19.58
76007;BMP280;64699;0.000;0.000;2024-02-26T01:39:54;99671.00;;;19.56
76007;BMP280;64699;0.000;0.000;2024-02-26T01:42:19;99661.22;;;19.55
76007;BMP280;64699;0.000;0.000;2024-02-26T01:44:45;99673.75;;;19.56
76007;BMP280;64699;0.000;0.000;2024-02-26T01:47:11;99667.50;;;19.55
76007;BMP280;64699;0.000;0.000;2024-02-26T01:49:36;99670.25;;;19.55
76007;BMP280;64699;0.000;0.000;2024-02-26T01:52:02;99666.03;;;19.54
76007;BMP280;64699;0.000;0.000;2024-02-26T01:54:29;99672.25;;;19.55
76007;BMP280;64699;0.000;0.000;2024-02-26T01:56:54;99668.03;;;19.54
76007;BMP280;64699;0.000;0.000;2024-02-26T01:59:20;99670.78;;;19.54
76007;BMP280;64699;0.000;0.000;2024-02-26T02:01:45;99678.88;;;19.52
76007;BMP280;64699;0.000;0.000;2024-02-26T02:04:13;99671.91;;;19.51
76007;BMP280;64699;0.000;0.000;2024-02-26T02:06:39;99669.88;;;19.51
76007;BMP280;64699;0.000;0.000;2024-02-26T02:09:05;99670.44;;;19.50
76007;BMP280;64699;0.000;0.000;2024-02-26T02:11:32;99677.41;;;19.51
76007;BMP280;64699;0.000;0.000;2024-02-26T02:13:58;99675.94;;;19.50
76007;BMP280;64699;0.000;0.000;2024-02-26T02:16:23;99669.69;;;19.49
76007;BMP280;64699;0.000;0.000;2024-02-26T02:18:48;99678.69;;;19.50
76007;BMP280;64699;0.000;0.000;2024-02-26T02:21:13;99684.94;;;19.50
76007;BMP280;64699;0.000;0.000;2024-02-26T02:23:39;99674.47;;;19.49
76007;BMP280;64699;0.000;0.000;2024-02-26T02:26:04;99673.75;;;19.48
76007;BMP280;64699;0.000;0.000;2024-02-26T02:28:29;99684.78;;;19.48
76007;BMP280;64699;0.000;0.000;2024-02-26T02:30:55;99690.28;;;19.48
76007;BMP280;64699;0.000;0.000;2024-02-26T02:33:21;99688.25;;;19.49
76007;BMP280;64699;0.000;0.000;2024-02-26T02:35:47;99688.06;;;19.47
76007;BMP280;64699;0.000;0.000;2024-02-26T02:38:12;99690.09;;;19.46
76007;BMP280;64699;0.000;0.000;2024-02-26T02:40:37;99691.38;;;19.45
76007;BMP280;64699;0.000;0.000;2024-02-26T02:43:03;99685.88;;;19.45
76007;BMP280;64699;0.000;0.000;2024-02-26T02:45:29;99689.94;;;19.44
76007;BMP280;64699;0.000;0.000;2024-02-26T02:47:54;99696.16;;;19.45
76007;BMP280;64699;0.000;0.000;2024-02-26T02:50:20;99693.22;;;19.43
76007;BMP280;64699;0.000;0.000;2024-02-26T02:52:45;99701.50;;;19.43
76007;BMP280;64699;0.000;0.000;2024-02-26T02:55:10;99702.22;;;19.43
76007;BMP280;64699;0.000;0.000;2024-02-26T02:57:36;99702.78;;;19.42
76007;BMP280;64699;0.000;0.000;2024-02-26T03:00:06;99704.06;;;19.41
76007;BMP280;64699;0.000;0.000;2024-02-26T03:02:32;99706.81;;;19.41
76007;BMP280;64699;0.000;0.000;2024-02-26T03:04:57;99707.53;;;19.41
76007;BMP280;64699;0.000;0.000;2024-02-26T03:07:22;99703.50;;;19.42
76007;BMP280;64699;0.000;0.000;2024-02-26T03:09:47;99708.28;;;19.42
76007;BMP280;64699;0.000;0.000;2024-02-26T03:12:12;99711.03;;;19.42
76007;BMP280;64699;0.000;0.000;2024-02-26T03:14:38;99704.25;;;19.43
76007;BMP280;64699;0.000;0.000;2024-02-26T03:17:03;99713.78;;;19.42
76007;BMP280;64699;0.000;0.000;2024-02-26T03:19:28;99706.06;;;19.40
76007;BMP280;64699;0.000;0.000;2024-02-26T03:21:54;99708.09;;;19.40
76007;BMP280;64699;0.000;0.000;2024-02-26T03:24:19;99714.91;;;19.39
76007;BMP280;64699;0.000;0.000;2024-02-26T03:26:44;99710.84;;;19.40
76007;BMP280;64699;0.000;0.000;2024-02-26T03:29:09;99713.41;;;19.38
76007;BMP280;64699;0.000;0.000;2024-02-26T03:31:35;99714.16;;;19.38
76007;BMP280;64699;0.000;0.000;2024-02-26T03:34:00;99707.91;;;19.38
76007;BMP280;64699;0.000;0.000;2024-02-26T03:36:25;99703.69;;;19.37
76007;BMP280;64699;0.000;0.000;2024-02-26T03:38:51;99705.16;;;19.38
76007;BMP280;64699;0.000;0.000;2024-02-26T03:41:16;99706.44;;;19.37
76007;BMP280;64699;0.000;0.000;2024-02-26T03:43:42;99706.44;;;19.37
76007;BMP280;64699;0.000;0.000;2024-02-26T03:46:07;99712.88;;;19.39
76007;BMP280;64699;0.000;0.000;2024-02-26T03:48:33;99710.84;;;19.40
76007;BMP280;64699;0.000;0.000;2024-02-26T03:50:58;99707.91;;;19.38
76007;BMP280;64699;0.000;0.000;2024-02-26T03:53:23;99709.19;;;19.37
76007;BMP280;64699;0.000;0.000;2024-02-26T03:55:48;99711.22;;;19.36
76007;BMP280;64699;0.000;0.000;2024-02-26T03:58:14;99703.53;;;19.35
76007;BMP280;64699;0.000;0.000;2024-02-26T04:00:40;99708.28;;;19.34
76007;BMP280;64699;0.000;0.000;2024-02-26T04:03:05;99704.81;;;19.34
76007;BMP280;64699;0.000;0.000;2024-02-26T04:05:30;99718.38;;;19.32
76007;BMP280;64699;0.000;0.000;2024-02-26T04:07:55;99702.59;;;19.32
76007;BMP280;64699;0.000;0.000;2024-02-26T04:10:21;99715.63;;;19.32
76007;BMP280;64699;0.000;0.000;2024-02-26T04:12:47;99706.09;;;19.33
76007;BMP280;64699;0.000;0.000;2024-02-26T04:15:12;99715.63;;;19.32
76007;BMP280;64699;0.000;0.000;2024-02-26T04:17:37;99705.34;;;19.32
76007;BMP280;64699;0.000;0.000;2024-02-26T04:20:03;99712.16;;;19.31
76007;BMP280;64699;0.000;0.000;2024-02-26T04:22:30;99714.16;;;19.31
76007;BMP280;64699;0.000;0.000;2024-02-26T04:24:56;99713.44;;;19.30
76007;BMP280;64699;0.000;0.000;2024-02-26T04:27:21;99707.94;;;19.30
76007;BMP280;64699;0.000;0.000;2024-02-26T04:29:46;99712.69;;;19.30
76007;BMP280;64699;0.000;0.000;2024-02-26T04:32:11;99710.47;;;19.28
76007;BMP280;64699;0.000;0.000;2024-02-26T04:34:36;99708.47;;;19.29
76007;BMP280;64699;0.000;0.000;2024-02-26T04:37:02;99709.75;;;19.28
76007;BMP280;64699;0.000;0.000;2024-02-26T04:39:27;99709.00;;;19.27
76007;BMP280;64699;0.000;0.000;2024-02-26T04:41:52;99709.75;;;19.28
76007;BMP280;64699;0.000;0.000;2024-02-26T04:44:18;99707.56;;;19.26
76007;BMP280;64699;0.000;0.000;2024-02-26T04:46:43;99711.75;;;19.27
76007;BMP280;64699;0.000;0.000;2024-02-26T04:49:08;99716.75;;;19.29
76007;BMP280;64699;0.000;0.000;2024-02-26T04:51:34;99717.69;;;19.31
76007;BMP280;64699;0.000;0.000;2024-02-26T04:53:59;99716.38;;;19.32
76007;BMP280;64699;0.000;0.000;2024-02-26T04:56:24;99709.03;;;19.35
76007;BMP280;64699;0.000;0.000;2024-02-26T04:58:49;99707.91;;;19.38
76007;BMP280;64699;0.000;0.000;2024-02-26T05:01:15;99707.53;;;19.41
76007;BMP280;64699;0.000;0.000;2024-02-26T05:03:41;99701.84;;;19.47
76007;BMP280;64699;0.000;0.000;2024-02-26T05:06:07;99705.34;;;19.47
76007;BMP280;64699;0.000;0.000;2024-02-26T05:08:32;99707.19;;;19.52
76007;BMP280;64699;0.000;0.000;2024-02-26T05:10:58;99704.22;;;19.58
76007;BMP280;64699;0.000;0.000;2024-02-26T05:13:25;99706.03;;;19.63
76007;BMP280;64699;0.000;0.000;2024-02-26T05:15:50;99701.44;;;19.65
76007;BMP280;64699;0.000;0.000;2024-02-26T05:18:17;99708.41;;;19.66
76007;BMP280;64699;0.000;0.000;2024-02-26T05:20:42;99708.63;;;19.68
76007;BMP280;64699;0.000;0.000;2024-02-26T05:23:07;99714.28;;;19.70
76007;BMP280;64699;0.000;0.000;2024-02-26T05:25:32;99703.59;;;19.74
76007;BMP280;64699;0.000;0.000;2024-02-26T05:27:58;99714.84;;;19.76
76007;BMP280;64699;0.000;0.000;2024-02-26T05:30:23;99710.41;;;19.81
76007;BMP280;64699;0.000;0.000;2024-02-26T05:32:48;99714.78;;;19.84
76007;BMP280;64699;0.000;0.000;2024-02-26T05:35:13;99715.16;;;19.88
76007;BMP280;64699;0.000;0.000;2024-02-26T05:37:40;99719.56;;;19.91
76007;BMP280;64699;0.000;0.000;2024-02-26T05:40:05;99717.72;;;19.93
76007;BMP280;64699;0.000;0.000;2024-02-26T05:42:30;99721.56;;;19.98
76007;BMP280;64699;0.000;0.000;2024-02-26T05:44:56;99730.16;;;20.01
76007;BMP280;64699;0.000;0.000;2024-02-26T05:47:21;99736.03;;;20.05
76007;BMP280;64699;0.000;0.000;2024-02-26T05:49:46;99734.38;;;20.10
76007;BMP280;64699;0.000;0.000;2024-02-26T05:52:11;99743.00;;;20.14
76007;BMP280;64699;0.000;0.000;2024-02-26T05:54:36;99750.38;;;20.11
76007;BMP280;64699;0.000;0.000;2024-02-26T05:57:02;99736.63;;;19.97
76007;BMP280;64699;0.000;0.000;2024-02-26T05:59:27;99737.91;;;20.03
76007;BMP280;64699;0.000;0.000;2024-02-26T06:01:52;99741.19;;;20.01
76007;BMP280;64699;0.000;0.000;2024-02-26T06:04:17;99740.31;;;19.99
76007;BMP280;64699;0.000;0.000;2024-02-26T06:06:46;99742.31;;;19.99
76007;BMP280;64699;0.000;0.000;2024-02-26T06:09:11;99739.97;;;19.88
76007;BMP280;64699;0.000;0.000;2024-02-26T06:11:37;99746.97;;;19.81
76007;BMP280;64699;0.000;0.000;2024-02-26T06:14:02;99745.28;;;19.86
76007;BMP280;64699;0.000;0.000;2024-02-26T06:16:27;99751.19;;;19.90
76007;BMP280;64699;0.000;0.000;2024-02-26T06:18:52;99746.03;;;19.86
76007;BMP280;64699;0.000;0.000;2024-02-26T06:21:18;99750.63;;;19.91
76007;BMP280;64699;0.000;0.000;2024-02-26T06:23:43;99755.28;;;19.74
76007;BMP280;64699;0.000;0.000;2024-02-26T06:26:08;99759.88;;;19.04
76007;BMP280;64699;0.000;0.000;2024-02-26T06:28:33;99756.84;;;18.15
76007;BMP280;64699;0.000;0.000;2024-02-26T06:31:00;99757.28;;;17.63
76007;BMP280;64699;0.000;0.000;2024-02-26T06:33:26;99758.03;;;17.43
76007;BMP280;64699;0.000;0.000;2024-02-26T06:35:51;99768.34;;;17.50
76007;BMP280;64699;0.000;0.000;2024-02-26T06:38:16;99752.47;;;17.56
76007;BMP280;64699;0.000;0.000;2024-02-26T06:40:42;99769.47;;;14.04
76007;BMP280;64699;0.000;0.000;2024-02-26T06:43:07;99764.13;;;14.17
76007;BMP280;64699;0.000;0.000;2024-02-26T06:45:33;99768.28;;;16.89
76007;BMP280;64699;0.000;0.000;2024-02-26T06:47:58;99766.38;;;18.14
76007;BMP280;64699;0.000;0.000;2024-02-26T06:50:23;99762.75;;;18.69
76007;BMP280;64699;0.000;0.000;2024-02-26T06:52:48;99759.50;;;19.00
76007;BMP280;64699;0.000;0.000;2024-02-26T06:55:13;99763.94;;;19.18
76007;BMP280;64699;0.000;0.000;2024-02-26T06:57:39;99772.19;;;19.33
76007;BMP280;64699;0.000;0.000;2024-02-26T07:00:04;99772.72;;;19.39
76007;BMP280;64699;0.000;0.000;2024-02-26T07:02:30;99774.75;;;19.46
76007;BMP280;64699;0.000;0.000;2024-02-26T07:04:55;99775.13;;;19.50
76007;BMP280;64699;0.000;0.000;2024-02-26T07:07:23;99778.44;;;19.56
76007;BMP280;64699;0.000;0.000;2024-02-26T07:09:48;99789.81;;;19.60
76007;BMP280;64699;0.000;0.000;2024-02-26T07:12:14;99781.72;;;19.62
76007;BMP280;64699;0.000;0.000;2024-02-26T07:14:39;99775.84;;;19.65
76007;BMP280;64699;0.000;0.000;2024-02-26T07:17:04;99779.50;;;19.68
76007;BMP280;64699;0.000;0.000;2024-02-26T07:19:29;99783.91;;;19.71
76007;BMP280;64699;0.000;0.000;2024-02-26T07:21:54;99778.75;;;19.75
76007;BMP280;64699;0.000;0.000;2024-02-26T07:24:20;99784.28;;;19.75
76007;BMP280;64699;0.000;0.000;2024-02-26T07:26:45;99778.75;;;19.75
76007;BMP280;64699;0.000;0.000;2024-02-26T07:29:11;99789.25;;;19.76
76007;BMP280;64699;0.000;0.000;2024-02-26T07:31:38;99782.44;;;19.77
76007;BMP280;64699;0.000;0.000;2024-02-26T07:34:03;99793.09;;;19.81
76007;BMP280;64699;0.000;0.000;2024-02-26T07:36:28;99775.81;;;19.80
76007;BMP280;64699;0.000;0.000;2024-02-26T07:38:53;99792.91;;;19.79
76007;BMP280;64699;0.000;0.000;2024-02-26T07:41:19;99781.88;;;19.86
76007;BMP280;64699;0.000;0.000;2024-02-26T07:43:44;99781.13;;;19.86
76007;BMP280;64699;0.000;0.000;2024-02-26T07:46:12;99793.44;;;19.85
76007;BMP280;64699;0.000;0.000;2024-02-26T07:48:38;99797.47;;;19.84
76007;BMP280;64699;0.000;0.000;2024-02-26T07:51:03;99803.00;;;19.84
76007;BMP280;64699;0.000;0.000;2024-02-26T07:53:29;99798.22;;;19.84
76007;BMP280;64699;0.000;0.000;2024-02-26T07:55:54;99797.09;;;19.87
76007;BMP280;64699;0.000;0.000;2024-02-26T07:58:19;99793.44;;;19.92
76007;BMP280;64699;0.000;0.000;2024-02-26T08:00:45;99800.03;;;19.97
76007;BMP280;64699;0.000;0.000;2024-02-26T08:03:11;99797.56;;;18.66
76007;BMP280;64699;0.000;0.000;2024-02-26T08:05:38;99793.13;;;19.21
76007;BMP280;64699;0.000;0.000;2024-02-26T08:08:05;99795.69;;;19.64
76007;BMP280;64699;0.000;0.000;2024-02-26T08:10:31;99804.47;;;19.85
76007;BMP280;64699;0.000;0.000;2024-02-26T08:12:56;99803.53;;;19.97
76007;BMP280;64699;0.000;0.000;2024-02-26T08:15:29;99807.19;;;19.99
76007;BMP280;64699;0.000;0.000;2024-02-26T08:17:55;99802.03;;;20.03
76007;BMP280;64699;0.000;0.000;2024-02-26T08:20:20;99800.00;;;20.04
76007;BMP280;64699;0.000;0.000;2024-02-26T08:22:45;99810.66;;;20.07
76007;BMP280;64699;0.000;0.000;2024-02-26T08:25:10;99810.66;;;20.07
76007;BMP280;64699;0.000;0.000;2024-02-26T08:27:35;99807.34;;;20.09
76007;BMP280;64699;0.000;0.000;2024-02-26T08:30:01;99816.16;;;20.07
76007;BMP280;64699;0.000;0.000;2024-02-26T08:32:26;99830.34;;;20.11
76007;BMP280;64699;0.000;0.000;2024-02-26T08:34:51;99816.16;;;20.07
76007;BMP280;64699;0.000;0.000;2024-02-26T08:37:17;99817.09;;;20.10
76007;BMP280;64699;0.000;0.000;2024-02-26T08:39:42;99827.94;;;20.08
76007;BMP280;64699;0.000;0.000;2024-02-26T08:42:07;99823.16;;;20.08
76007;BMP280;64699;0.000;0.000;2024-02-26T08:44:32;99828.66;;;20.08
76007;BMP280;64699;0.000;0.000;2024-02-26T08:46:58;99828.66;;;20.08
76007;BMP280;64699;0.000;0.000;2024-02-26T08:49:23;99832.72;;;20.07
76007;BMP280;64699;0.000;0.000;2024-02-26T08:51:49;99833.50;;;19.93
76007;BMP280;64699;0.000;0.000;2024-02-26T08:54:14;99836.44;;;19.88
76007;BMP280;64699;0.000;0.000;2024-02-26T08:56:39;99836.44;;;19.88
76007;BMP280;64699;0.000;0.000;2024-02-26T08:59:04;99832.25;;;19.87
76007;BMP280;64699;0.000;0.000;2024-02-26T09:01:31;99832.25;;;19.87
76007;BMP280;64699;0.000;0.000;2024-02-26T09:03:56;99839.78;;;19.86
76007;BMP280;64699;0.000;0.000;2024-02-26T09:06:21;99835.00;;;19.87
76007;BMP280;64699;0.000;0.000;2024-02-26T09:08:46;99845.44;;;19.88
76007;BMP280;64699;0.000;0.000;2024-02-26T09:11:12;99837.00;;;19.86
76007;BMP280;64699;0.000;0.000;2024-02-26T09:13:37;99840.13;;;19.83
76007;BMP280;64699;0.000;0.000;2024-02-26T09:16:02;99843.06;;;19.85
76007;BMP280;64699;0.000;0.000;2024-02-26T09:18:28;99841.06;;;19.85
76007;BMP280;64699;0.000;0.000;2024-02-26T09:20:53;99840.31;;;19.85
76007;BMP280;64699;0.000;0.000;2024-02-26T09:23:19;99837.53;;;19.85
76007;BMP280;64699;0.000;0.000;2024-02-26T09:25:44;99842.34;;;19.84
76007;BMP280;64699;0.000;0.000;2024-02-26T09:28:09;99840.53;;;19.87
76007;BMP280;64699;0.000;0.000;2024-02-26T09:30:34;99843.06;;;19.85
76007;BMP280;64699;0.000;0.000;2024-02-26T09:32:59;99848.56;;;19.85
76007;BMP280;64699;0.000;0.000;2024-02-26T09:35:25;99850.41;;;19.82
76007;BMP280;64699;0.000;0.000;2024-02-26T09:37:51;99844.91;;;19.82
76007;BMP280;64699;0.000;0.000;2024-02-26T09:40:17;99849.84;;;19.84
76007;BMP280;64699;0.000;0.000;2024-02-26T09:42:43;99851.13;;;19.83
76007;BMP280;64699;0.000;0.000;2024-02-26T09:45:09;99848.97;;;19.74
76007;BMP280;64699;0.000;0.000;2024-02-26T09:47:37;99854.63;;;19.76
76007;BMP280;64699;0.000;0.000;2024-02-26T09:50:02;99861.09;;;19.78
76007;BMP280;64699;0.000;0.000;2024-02-26T09:52:28;99860.53;;;19.80
76007;BMP280;64699;0.000;0.000;2024-02-26T09:54:55;99857.78;;;19.80
76007;BMP280;64699;0.000;0.000;2024-02-26T09:57:21;99859.25;;;19.81
76007;BMP280;64699;0.000;0.000;2024-02-26T09:59:49;99858.50;;;19.80
76007;BMP280;64699;0.000;0.000;2024-02-26T10:02:16;99861.25;;;19.80
76007;BMP280;64699;0.000;0.000;2024-02-26T10:04:43;99857.78;;;19.80
76007;BMP280;64699;0.000;0.000;2024-02-26T10:07:09;99857.78;;;19.80
76007;BMP280;64699;0.000;0.000;2024-02-26T10:09:35;99862.00;;;19.81
76007;BMP280;64699;0.000;0.000;2024-02-26T10:12:00;99868.81;;;19.80
76007;BMP280;64699;0.000;0.000;2024-02-26T10:14:25;99859.97;;;19.81
76007;BMP280;64699;0.000;0.000;2024-02-26T10:16:51;99857.78;;;19.80
76007;BMP280;64699;0.000;0.000;2024-02-26T10:19:25;99857.78;;;19.80
76007;BMP280;64699;0.000;0.000;2024-02-26T10:21:56;99855.03;;;19.80
76007;BMP280;64699;0.000;0.000;2024-02-26T10:24:21;99857.78;;;19.80
76007;BMP280;64699;0.000;0.000;2024-02-26T10:26:46;99849.31;;;19.78
76007;BMP280;64699;0.000;0.000;2024-02-26T10:29:12;99849.31;;;19.78
76007;BMP280;64699;0.000;0.000;2024-02-26T10:31:37;99845.28;;;19.79
76007;BMP280;64699;0.000;0.000;2024-02-26T10:34:02;99843.09;;;19.77
76007;BMP280;64699;0.000;0.000;2024-02-26T10:36:28;99851.34;;;19.77
76007;BMP280;64699;0.000;0.000;2024-02-26T10:38:54;99850.06;;;19.78
76007;BMP280;64699;0.000;0.000;2024-02-26T10:41:19;99855.59;;;19.78
76007;BMP280;64699;0.000;0.000;2024-02-26T10:43:44;99857.59;;;19.78
76007;BMP280;64699;0.000;0.000;2024-02-26T10:46:10;99856.88;;;19.77
76007;BMP280;64699;0.000;0.000;2024-02-26T10:48:35;99852.06;;;19.78
76007;BMP280;64699;0.000;0.000;2024-02-26T10:51:00;99851.88;;;19.76
76007;BMP280;64699;0.000;0.000;2024-02-26T10:53:27;99850.41;;;19.75
76007;BMP280;64699;0.000;0.000;2024-02-26T10:56:03;99839.38;;;19.75
76007;BMP280;64699;0.000;0.000;2024-02-26T10:58:28;99849.13;;;19.76
76007;BMP280;64699;0.000;0.000;2024-02-26T11:00:54;99846.22;;;19.74
76007;BMP280;64699;0.000;0.000;2024-02-26T11:03:21;99843.47;;;19.74
76007;BMP280;64699;0.000;0.000;2024-02-26T11:05:50;99842.16;;;19.75
76007;BMP280;64699;0.000;0.000;2024-02-26T11:08:17;99833.13;;;19.74
76007;BMP280;64699;0.000;0.000;2024-02-26T11:10:43;99833.13;;;19.74
76007;BMP280;64699;0.000;0.000;2024-02-26T11:13:09;99838.63;;;19.74
76007;BMP280;64699;0.000;0.000;2024-02-26T11:15:34;99834.44;;;19.73
76007;BMP280;64699;0.000;0.000;2024-02-26T11:17:59;99828.22;;;19.73
76007;BMP280;64699;0.000;0.000;2024-02-26T11:20:27;99825.44;;;19.73
76007;BMP280;64699;0.000;0.000;2024-02-26T11:22:53;99834.44;;;19.73
76007;BMP280;64699;0.000;0.000;2024-02-26T11:25:18;99839.00;;;19.71
76007;BMP280;64699;0.000;0.000;2024-02-26T11:27:44;99834.25;;;19.71
76007;BMP280;64699;0.000;0.000;2024-02-26T11:30:11;99837.56;;;19.70
76007;BMP280;64699;0.000;0.000;2024-02-26T11:32:37;99839.75;;;19.71
76007;BMP280;64699;0.000;0.000;2024-02-26T11:35:04;99831.50;;;19.71
76007;BMP280;64699;0.000;0.000;2024-02-26T11:37:30;99832.78;;;19.70
76007;BMP280;64699;0.000;0.000;2024-02-26T11:39:55;99835.53;;;19.70
76007;BMP280;64699;0.000;0.000;2024-02-26T11:42:24;99836.84;;;19.69
76007;BMP280;64699;0.000;0.000;2024-02-26T11:44:53;99839.00;;;19.71
76007;BMP280;64699;0.000;0.000;2024-02-26T11:47:21;99829.13;;;19.68
76007;BMP280;64699;0.000;0.000;2024-02-26T11:49:47;99833.91;;;19.67
76007;BMP280;64699;0.000;0.000;2024-02-26T11:52:13;99834.09;;;19.69
76007;BMP280;64699;0.000;0.000;2024-02-26T11:54:51;99828.38;;;19.67
76007;BMP280;64699;0.000;0.000;2024-02-26T11:57:23;99822.31;;;19.69
76007;BMP280;64699;0.000;0.000;2024-02-26T11:59:48;99826.19;;;19.66
76007;BMP280;64699;0.000;0.000;2024-02-26T12:04:58;99829.41;;;18.97
76007;BMP280;64699;0.000;0.000;2024-02-26T12:07:24;99818.50;;;18.69
76007;BMP280;64699;0.000;0.000;2024-02-26T12:09:49;99817.91;;;19.14
76007;BMP280;64699;0.000;0.000;2024-02-26T12:12:17;99813.50;;;19.40
76007;BMP280;64699;0.000;0.000;2024-02-26T12:14:52;99811.50;;;19.56
76007;BMP280;64699;0.000;0.000;2024-02-26T12:17:22;99809.66;;;19.66
76007;BMP280;64699;0.000;0.000;2024-02-26T12:19:48;99814.81;;;19.69
76007;BMP280;64699;0.000;0.000;2024-02-26T12:22:13;99819.56;;;19.69
76007;BMP280;64699;0.000;0.000;2024-02-26T12:24:39;99813.50;;;19.70
76007;BMP280;64699;0.000;0.000;2024-02-26T12:27:04;99816.97;;;19.71
76007;BMP280;64699;0.000;0.000;2024-02-26T12:29:29;99816.81;;;19.69
76007;BMP280;64699;0.000;0.000;2024-02-26T12:31:54;99816.25;;;19.70
76007;BMP280;64699;0.000;0.000;2024-02-26T12:34:20;99822.47;;;19.71
76007;BMP280;64699;0.000;0.000;2024-02-26T12:36:45;99816.97;;;19.71
76007;BMP280;64699;0.000;0.000;2024-02-26T12:39:10;99818.28;;;19.70
76007;BMP280;64699;0.000;0.000;2024-02-26T12:41:35;99817.38;;;19.67
76007;BMP280;64699;0.000;0.000;2024-02-26T12:44:02;99816.63;;;19.67
76007;BMP280;64699;0.000;0.000;2024-02-26T12:46:28;99820.31;;;19.69
76007;BMP280;64699;0.000;0.000;2024-02-26T12:48:55;99821.75;;;19.70
76007;BMP280;64699;0.000;0.000;2024-02-26T12:51:22;99817.56;;;19.69
76007;BMP280;64699;0.000;0.000;2024-02-26T12:53:48;99820.13;;;19.67
76007;BMP280;64699;0.000;0.000;2024-02-26T12:56:15;99819.56;;;19.69
76007;BMP280;64699;0.000;0.000;2024-02-26T12:58:41;99816.63;;;19.67
76007;BMP280;64699;0.000;0.000;2024-02-26T13:01:06;99811.09;;;19.67
76007;BMP280;64699;0.000;0.000;2024-02-26T13:03:32;99809.66;;;19.66
76007;BMP280;64699;0.000;0.000;2024-02-26T13:05:58;99812.56;;;19.68
76007;BMP280;64699;0.000;0.000;2024-02-26T13:08:23;99815.88;;;19.66
76007;BMP280;64699;0.000;0.000;2024-02-26T13:10:49;99822.13;;;19.67
76007;BMP280;64699;0.000;0.000;2024-02-26T13:13:16;99827.47;;;19.65
76007;BMP280;64699;0.000;0.000;2024-02-26T13:15:44;99818.63;;;19.66
76007;BMP280;64699;0.000;0.000;2024-02-26T13:18:10;99823.44;;;19.66
76007;BMP280;64699;0.000;0.000;2024-02-26T13:20:36;99827.66;;;19.67
76007;BMP280;64699;0.000;0.000;2024-02-26T13:23:05;99818.84;;;19.68
76007;BMP280;64699;0.000;0.000;2024-02-26T13:25:30;99818.28;;;19.70
76007;BMP280;64699;0.000;0.000;2024-02-26T13:28:09;99826.16;;;19.73
76007;BMP280;64699;0.000;0.000;2024-02-26T13:30:34;99829.69;;;19.74
76007;BMP280;64699;0.000;0.000;2024-02-26T13:33:12;99826.91;;;19.74
76007;BMP280;64699;0.000;0.000;2024-02-26T13:35:38;99825.78;;;19.77
76007;BMP280;64699;0.000;0.000;2024-02-26T13:38:04;99825.25;;;19.78
76007;BMP280;64699;0.000;0.000;2024-02-26T13:40:29;99819.19;;;19.80
76007;BMP280;64699;0.000;0.000;2024-02-26T13:42:54;99825.41;;;19.80
76007;BMP280;64699;0.000;0.000;2024-02-26T13:45:20;99821.00;;;19.85
76007;BMP280;64699;0.000;0.000;2024-02-26T13:47:45;99821.22;;;19.87
76007;BMP280;64699;0.000;0.000;2024-02-26T13:50:10;99823.97;;;19.87
76007;BMP280;64699;0.000;0.000;2024-02-26T13:52:35;99823.22;;;19.86
76007;BMP280;64699;0.000;0.000;2024-02-26T13:55:01;99828.38;;;19.90
76007;BMP280;64699;0.000;0.000;2024-02-26T13:57:27;99837.91;;;19.89
76007;BMP280;64699;0.000;0.000;2024-02-26T13:59:53;99828.19;;;19.88
76007;BMP280;64699;0.000;0.000;2024-02-26T14:02:18;99833.50;;;19.86
76007;BMP280;64699;0.000;0.000;2024-02-26T14:04:44;99827.44;;;19.87
76007;BMP280;64699;0.000;0.000;2024-02-26T14:07:10;99837.00;;;19.86
76007;BMP280;64699;0.000;0.000;2024-02-26T14:09:36;99836.44;;;19.88
76007;BMP280;64699;0.000;0.000;2024-02-26T14:12:01;99819.91;;;19.88
76007;BMP280;64699;0.000;0.000;2024-02-26T14:14:29;99823.97;;;19.87